sensor_id;sensor_type;location;lat;lon;timestamp;P1;durP1;ratioP1;P2;durP2;ratioP2
50709;SDS011;37033;49.994;21.992;2023-06-26T00:00:59;7.60;;;6.10;;
50709;SDS011;37033;49.994;21.992;2023-06-26T00:03:50;8.60;;;6.90;;
50709;SDS011;37033;49.994;21.992;2023-06-26T00:06:21;7.00;;;6.30;;
50709;SDS011;37033;49.994;21.992;2023-06-26T00:08:52;9.50;;;6.80;;
50709;SDS011;37033;49.994;21.992;2023-06-26T00:11:23;7.00;;;6.30;;
50709;SDS011;37033;49.994;21.992;2023-06-26T00:13:58;8.00;;;7.30;;
50709;SDS011;37033;49.994;21.992;2023-06-26T00:16:29;8.00;;;7.20;;
50709;SDS011;37033;49.994;21.992;2023-06-26T00:18:59;8.10;;;6.70;;
50709;SDS011;37033;49.994;21.992;2023-06-26T00:21:30;10.70;;;7.40;;
50709;SDS011;37033;49.994;21.992;2023-06-26T00:24:01;9.90;;;7.50;;
50709;SDS011;37033;49.994;21.992;2023-06-26T00:26:31;9.10;;;6.70;;
50709;SDS011;37033;49.994;21.992;2023-06-26T00:29:02;8.90;;;7.20;;
50709;SDS011;37033;49.994;21.992;2023-06-26T00:31:33;9.10;;;7.30;;
50709;SDS011;37033;49.994;21.992;2023-06-26T00:34:03;8.60;;;6.80;;
50709;SDS011;37033;49.994;21.992;2023-06-26T00:36:34;8.00;;;7.00;;
50709;SDS011;37033;49.994;21.992;2023-06-26T00:39:05;7.70;;;6.80;;
50709;SDS011;37033;49.994;21.992;2023-06-26T00:41:35;9.60;;;7.40;;
50709;SDS011;37033;49.994;21.992;2023-06-26T00:44:06;8.60;;;7.30;;
50709;SDS011;37033;49.994;21.992;2023-06-26T00:46:37;8.30;;;6.60;;
50709;SDS011;37033;49.994;21.992;2023-06-26T00:49:08;10.20;;;7.50;;
50709;SDS011;37033;49.994;21.992;2023-06-26T00:51:39;8.60;;;7.30;;
50709;SDS011;37033;49.994;21.992;2023-06-26T00:54:10;7.80;;;7.00;;
50709;SDS011;37033;49.994;21.992;2023-06-26T00:56:47;8.00;;;7.20;;
50709;SDS011;37033;49.994;21.992;2023-06-26T00:59:18;9.20;;;7.40;;
50709;SDS011;37033;49.994;21.992;2023-06-26T01:01:49;8.10;;;7.30;;
50709;SDS011;37033;49.994;21.992;2023-06-26T01:04:19;8.80;;;7.90;;
50709;SDS011;37033;49.994;21.992;2023-06-26T01:06:55;9.20;;;7.30;;
50709;SDS011;37033;49.994;21.992;2023-06-26T01:09:26;9.90;;;7.80;;
50709;SDS011;37033;49.994;21.992;2023-06-26T01:11:57;10.20;;;7.40;;
50709;SDS011;37033;49.994;21.992;2023-06-26T01:14:28;8.20;;;7.20;;
50709;SDS011;37033;49.994;21.992;2023-06-26T01:17:00;10.00;;;7.90;;
50709;SDS011;37033;49.994;21.992;2023-06-26T01:19:32;8.70;;;7.70;;
50709;SDS011;37033;49.994;21.992;2023-06-26T01:22:06;9.20;;;8.20;;
50709;SDS011;37033;49.994;21.992;2023-06-26T01:24:44;9.20;;;8.30;;
50709;SDS011;37033;49.994;21.992;2023-06-26T01:27:31;10.30;;;8.40;;
50709;SDS011;37033;49.994;21.992;2023-06-26T01:30:03;9.00;;;7.80;;
50709;SDS011;37033;49.994;21.992;2023-06-26T01:32:36;7.80;;;7.00;;
50709;SDS011;37033;49.994;21.992;2023-06-26T01:35:08;8.80;;;7.80;;
50709;SDS011;37033;49.994;21.992;2023-06-26T01:37:40;8.90;;;7.70;;
50709;SDS011;37033;49.994;21.992;2023-06-26T01:40:11;7.90;;;7.10;;
50709;SDS011;37033;49.994;21.992;2023-06-26T01:42:42;7.80;;;7.00;;
50709;SDS011;37033;49.994;21.992;2023-06-26T01:45:14;10.50;;;7.20;;
50709;SDS011;37033;49.994;21.992;2023-06-26T01:47:50;6.80;;;6.20;;
50709;SDS011;37033;49.994;21.992;2023-06-26T01:50:22;8.10;;;7.30;;
50709;SDS011;37033;49.994;21.992;2023-06-26T01:52:57;8.30;;;6.90;;
50709;SDS011;37033;49.994;21.992;2023-06-26T01:55:34;9.90;;;7.20;;
50709;SDS011;37033;49.994;21.992;2023-06-26T01:58:09;11.60;;;7.00;;
50709;SDS011;37033;49.994;21.992;2023-06-26T02:00:41;10.20;;;6.90;;
50709;SDS011;37033;49.994;21.992;2023-06-26T02:03:12;7.80;;;7.00;;
50709;SDS011;37033;49.994;21.992;2023-06-26T02:05:43;8.10;;;6.30;;
50709;SDS011;37033;49.994;21.992;2023-06-26T02:08:14;7.10;;;6.40;;
50709;SDS011;37033;49.994;21.992;2023-06-26T02:10:45;6.80;;;6.10;;
50709;SDS011;37033;49.994;21.992;2023-06-26T02:13:15;8.40;;;6.70;;
50709;SDS011;37033;49.994;21.992;2023-06-26T02:15:46;9.00;;;6.50;;
50709;SDS011;37033;49.994;21.992;2023-06-26T02:18:17;8.00;;;7.20;;
50709;SDS011;37033;49.994;21.992;2023-06-26T02:20:49;11.60;;;6.00;;
50709;SDS011;37033;49.994;21.992;2023-06-26T02:23:19;7.10;;;5.80;;
50709;SDS011;37033;49.994;21.992;2023-06-26T02:25:50;9.10;;;7.60;;
50709;SDS011;37033;49.994;21.992;2023-06-26T02:28:21;6.90;;;6.30;;
50709;SDS011;37033;49.994;21.992;2023-06-26T02:30:51;7.40;;;6.10;;
50709;SDS011;37033;49.994;21.992;2023-06-26T02:33:22;7.80;;;7.10;;
50709;SDS011;37033;49.994;21.992;2023-06-26T02:35:53;8.30;;;6.70;;
50709;SDS011;37033;49.994;21.992;2023-06-26T02:38:23;7.40;;;6.70;;
50709;SDS011;37033;49.994;21.992;2023-06-26T02:40:54;7.20;;;6.50;;
50709;SDS011;37033;49.994;21.992;2023-06-26T02:43:24;7.30;;;6.60;;
50709;SDS011;37033;49.994;21.992;2023-06-26T02:45:55;7.60;;;6.70;;
50709;SDS011;37033;49.994;21.992;2023-06-26T02:48:25;8.20;;;6.80;;
50709;SDS011;37033;49.994;21.992;2023-06-26T02:50:56;8.20;;;6.30;;
50709;SDS011;37033;49.994;21.992;2023-06-26T02:53:27;7.30;;;6.60;;
50709;SDS011;37033;49.994;21.992;2023-06-26T02:55:59;7.10;;;6.30;;
50709;SDS011;37033;49.994;21.992;2023-06-26T02:58:30;6.80;;;6.20;;
50709;SDS011;37033;49.994;21.992;2023-06-26T03:01:00;7.10;;;6.40;;
50709;SDS011;37033;49.994;21.992;2023-06-26T03:03:31;10.60;;;7.00;;
50709;SDS011;37033;49.994;21.992;2023-06-26T03:06:08;8.10;;;6.60;;
50709;SDS011;37033;49.994;21.992;2023-06-26T03:08:39;12.80;;;7.20;;
50709;SDS011;37033;49.994;21.992;2023-06-26T03:11:10;9.60;;;6.90;;
50709;SDS011;37033;49.994;21.992;2023-06-26T03:13:41;7.70;;;6.90;;
50709;SDS011;37033;49.994;21.992;2023-06-26T03:16:11;8.50;;;7.20;;
50709;SDS011;37033;49.994;21.992;2023-06-26T03:18:42;8.00;;;6.60;;
50709;SDS011;37033;49.994;21.992;2023-06-26T03:21:13;8.00;;;7.10;;
50709;SDS011;37033;49.994;21.992;2023-06-26T03:23:43;7.70;;;7.00;;
50709;SDS011;37033;49.994;21.992;2023-06-26T03:26:14;7.70;;;6.90;;
50709;SDS011;37033;49.994;21.992;2023-06-26T03:28:44;10.40;;;6.40;;
50709;SDS011;37033;49.994;21.992;2023-06-26T03:31:15;8.50;;;6.70;;
50709;SDS011;37033;49.994;21.992;2023-06-26T03:33:46;7.60;;;6.90;;
50709;SDS011;37033;49.994;21.992;2023-06-26T03:36:16;14.60;;;7.30;;
50709;SDS011;37033;49.994;21.992;2023-06-26T03:38:47;8.10;;;7.00;;
50709;SDS011;37033;49.994;21.992;2023-06-26T03:41:18;13.40;;;7.40;;
50709;SDS011;37033;49.994;21.992;2023-06-26T03:43:48;7.30;;;6.50;;
50709;SDS011;37033;49.994;21.992;2023-06-26T03:46:19;7.70;;;6.90;;
50709;SDS011;37033;49.994;21.992;2023-06-26T03:48:50;7.30;;;6.60;;
50709;SDS011;37033;49.994;21.992;2023-06-26T03:51:20;20.50;;;13.30;;
50709;SDS011;37033;49.994;21.992;2023-06-26T03:53:51;8.60;;;7.50;;
50709;SDS011;37033;49.994;21.992;2023-06-26T03:56:22;13.20;;;7.60;;
50709;SDS011;37033;49.994;21.992;2023-06-26T03:58:52;7.50;;;6.70;;
50709;SDS011;37033;49.994;21.992;2023-06-26T04:01:23;8.10;;;7.30;;
50709;SDS011;37033;49.994;21.992;2023-06-26T04:03:53;8.60;;;7.60;;
50709;SDS011;37033;49.994;21.992;2023-06-26T04:06:24;8.00;;;7.20;;
50709;SDS011;37033;49.994;21.992;2023-06-26T04:08:55;8.10;;;7.30;;
50709;SDS011;37033;49.994;21.992;2023-06-26T04:11:25;12.40;;;7.70;;
50709;SDS011;37033;49.994;21.992;2023-06-26T04:13:56;10.50;;;8.10;;
50709;SDS011;37033;49.994;21.992;2023-06-26T04:16:27;9.40;;;7.60;;
50709;SDS011;37033;49.994;21.992;2023-06-26T04:18:58;10.20;;;8.10;;
50709;SDS011;37033;49.994;21.992;2023-06-26T04:21:30;9.70;;;8.00;;
50709;SDS011;37033;49.994;21.992;2023-06-26T04:24:00;8.70;;;7.80;;
50709;SDS011;37033;49.994;21.992;2023-06-26T04:26:31;10.70;;;7.60;;
50709;SDS011;37033;49.994;21.992;2023-06-26T04:29:02;8.10;;;7.30;;
50709;SDS011;37033;49.994;21.992;2023-06-26T04:31:33;9.70;;;7.90;;
50709;SDS011;37033;49.994;21.992;2023-06-26T04:34:04;9.30;;;7.50;;
50709;SDS011;37033;49.994;21.992;2023-06-26T04:36:35;11.90;;;7.90;;
50709;SDS011;37033;49.994;21.992;2023-06-26T04:39:06;8.60;;;7.70;;
50709;SDS011;37033;49.994;21.992;2023-06-26T04:41:37;8.10;;;7.00;;
50709;SDS011;37033;49.994;21.992;2023-06-26T04:44:08;8.20;;;7.40;;
50709;SDS011;37033;49.994;21.992;2023-06-26T04:46:38;8.30;;;7.50;;
50709;SDS011;37033;49.994;21.992;2023-06-26T04:49:09;9.60;;;7.60;;
50709;SDS011;37033;49.994;21.992;2023-06-26T04:51:41;8.00;;;7.20;;
50709;SDS011;37033;49.994;21.992;2023-06-26T04:54:11;9.20;;;6.70;;
50709;SDS011;37033;49.994;21.992;2023-06-26T04:56:42;7.90;;;6.50;;
50709;SDS011;37033;49.994;21.992;2023-06-26T04:59:14;8.10;;;7.30;;
50709;SDS011;37033;49.994;21.992;2023-06-26T05:01:46;7.50;;;6.70;;
50709;SDS011;37033;49.994;21.992;2023-06-26T05:04:16;8.10;;;7.20;;
50709;SDS011;37033;49.994;21.992;2023-06-26T05:06:47;9.80;;;7.10;;
50709;SDS011;37033;49.994;21.992;2023-06-26T05:09:18;10.00;;;7.50;;
50709;SDS011;37033;49.994;21.992;2023-06-26T05:11:48;7.60;;;6.90;;
50709;SDS011;37033;49.994;21.992;2023-06-26T05:14:20;10.10;;;7.60;;
50709;SDS011;37033;49.994;21.992;2023-06-26T05:16:50;8.90;;;7.80;;
50709;SDS011;37033;49.994;21.992;2023-06-26T05:19:21;8.20;;;7.50;;
50709;SDS011;37033;49.994;21.992;2023-06-26T05:21:52;8.40;;;7.30;;
50709;SDS011;37033;49.994;21.992;2023-06-26T05:24:23;10.50;;;6.90;;
50709;SDS011;37033;49.994;21.992;2023-06-26T05:26:55;8.30;;;6.80;;
50709;SDS011;37033;49.994;21.992;2023-06-26T05:29:26;8.20;;;7.40;;
50709;SDS011;37033;49.994;21.992;2023-06-26T05:32:00;9.70;;;7.40;;
50709;SDS011;37033;49.994;21.992;2023-06-26T05:34:32;10.80;;;7.10;;
50709;SDS011;37033;49.994;21.992;2023-06-26T05:37:03;9.60;;;7.00;;
50709;SDS011;37033;49.994;21.992;2023-06-26T05:39:36;9.30;;;6.80;;
50709;SDS011;37033;49.994;21.992;2023-06-26T05:42:08;7.80;;;7.00;;
50709;SDS011;37033;49.994;21.992;2023-06-26T05:44:40;8.50;;;7.50;;
50709;SDS011;37033;49.994;21.992;2023-06-26T05:47:11;8.10;;;7.40;;
50709;SDS011;37033;49.994;21.992;2023-06-26T05:49:41;9.20;;;7.10;;
50709;SDS011;37033;49.994;21.992;2023-06-26T05:52:13;11.20;;;7.30;;
50709;SDS011;37033;49.994;21.992;2023-06-26T05:54:44;8.10;;;7.20;;
50709;SDS011;37033;49.994;21.992;2023-06-26T05:57:16;10.00;;;7.20;;
50709;SDS011;37033;49.994;21.992;2023-06-26T05:59:47;8.20;;;7.40;;
50709;SDS011;37033;49.994;21.992;2023-06-26T06:02:20;7.50;;;6.60;;
50709;SDS011;37033;49.994;21.992;2023-06-26T06:04:50;6.80;;;6.20;;
50709;SDS011;37033;49.994;21.992;2023-06-26T06:07:21;8.10;;;7.00;;
50709;SDS011;37033;49.994;21.992;2023-06-26T06:09:52;7.40;;;6.60;;
50709;SDS011;37033;49.994;21.992;2023-06-26T06:12:22;9.80;;;6.70;;
50709;SDS011;37033;49.994;21.992;2023-06-26T06:14:53;7.60;;;6.90;;
50709;SDS011;37033;49.994;21.992;2023-06-26T06:17:24;7.80;;;6.60;;
50709;SDS011;37033;49.994;21.992;2023-06-26T06:19:55;8.10;;;6.70;;
50709;SDS011;37033;49.994;21.992;2023-06-26T06:22:25;9.50;;;6.80;;
50709;SDS011;37033;49.994;21.992;2023-06-26T06:24:56;7.20;;;6.60;;
50709;SDS011;37033;49.994;21.992;2023-06-26T06:27:27;8.10;;;6.60;;
50709;SDS011;37033;49.994;21.992;2023-06-26T06:29:58;7.30;;;6.30;;
50709;SDS011;37033;49.994;21.992;2023-06-26T06:32:29;10.50;;;6.50;;
50709;SDS011;37033;49.994;21.992;2023-06-26T06:34:59;8.40;;;7.20;;
50709;SDS011;37033;49.994;21.992;2023-06-26T06:37:37;8.20;;;6.30;;
50709;SDS011;37033;49.994;21.992;2023-06-26T06:40:09;7.10;;;6.40;;
50709;SDS011;37033;49.994;21.992;2023-06-26T06:42:41;8.30;;;6.70;;
50709;SDS011;37033;49.994;21.992;2023-06-26T06:45:11;12.70;;;6.00;;
50709;SDS011;37033;49.994;21.992;2023-06-26T06:47:42;8.60;;;6.40;;
50709;SDS011;37033;49.994;21.992;2023-06-26T06:50:12;6.90;;;6.30;;
50709;SDS011;37033;49.994;21.992;2023-06-26T06:52:43;9.20;;;5.80;;
50709;SDS011;37033;49.994;21.992;2023-06-26T06:55:14;6.60;;;6.00;;
50709;SDS011;37033;49.994;21.992;2023-06-26T06:57:45;8.20;;;6.10;;
50709;SDS011;37033;49.994;21.992;2023-06-26T07:00:16;7.60;;;6.30;;
50709;SDS011;37033;49.994;21.992;2023-06-26T07:02:47;14.70;;;6.50;;
50709;SDS011;37033;49.994;21.992;2023-06-26T07:05:18;7.20;;;6.40;;
50709;SDS011;37033;49.994;21.992;2023-06-26T07:07:49;6.10;;;5.60;;
50709;SDS011;37033;49.994;21.992;2023-06-26T07:10:19;11.10;;;6.60;;
50709;SDS011;37033;49.994;21.992;2023-06-26T07:12:50;7.80;;;6.00;;
50709;SDS011;37033;49.994;21.992;2023-06-26T07:15:21;6.00;;;5.50;;
50709;SDS011;37033;49.994;21.992;2023-06-26T07:17:51;9.50;;;6.40;;
50709;SDS011;37033;49.994;21.992;2023-06-26T07:20:22;8.40;;;6.50;;
50709;SDS011;37033;49.994;21.992;2023-06-26T07:22:53;7.70;;;6.40;;
50709;SDS011;37033;49.994;21.992;2023-06-26T07:25:24;6.40;;;5.70;;
50709;SDS011;37033;49.994;21.992;2023-06-26T07:27:54;6.50;;;5.40;;
50709;SDS011;37033;49.994;21.992;2023-06-26T07:30:25;6.00;;;5.30;;
50709;SDS011;37033;49.994;21.992;2023-06-26T07:32:56;6.70;;;5.80;;
50709;SDS011;37033;49.994;21.992;2023-06-26T07:35:26;6.20;;;5.60;;
50709;SDS011;37033;49.994;21.992;2023-06-26T07:37:57;6.20;;;5.30;;
50709;SDS011;37033;49.994;21.992;2023-06-26T07:40:27;6.40;;;5.80;;
50709;SDS011;37033;49.994;21.992;2023-06-26T07:42:58;6.20;;;5.60;;
50709;SDS011;37033;49.994;21.992;2023-06-26T07:45:29;5.50;;;4.90;;
50709;SDS011;37033;49.994;21.992;2023-06-26T07:47:59;7.50;;;5.60;;
50709;SDS011;37033;49.994;21.992;2023-06-26T07:50:30;5.80;;;5.20;;
50709;SDS011;37033;49.994;21.992;2023-06-26T07:53:00;6.20;;;5.30;;
50709;SDS011;37033;49.994;21.992;2023-06-26T07:55:33;5.30;;;4.80;;
50709;SDS011;37033;49.994;21.992;2023-06-26T07:58:03;7.40;;;4.80;;
50709;SDS011;37033;49.994;21.992;2023-06-26T08:00:34;5.00;;;4.60;;
50709;SDS011;37033;49.994;21.992;2023-06-26T08:03:04;5.40;;;4.90;;
50709;SDS011;37033;49.994;21.992;2023-06-26T08:05:35;6.60;;;5.50;;
50709;SDS011;37033;49.994;21.992;2023-06-26T08:08:06;5.70;;;5.20;;
50709;SDS011;37033;49.994;21.992;2023-06-26T08:10:36;8.50;;;5.30;;
50709;SDS011;37033;49.994;21.992;2023-06-26T08:13:07;5.50;;;5.00;;
50709;SDS011;37033;49.994;21.992;2023-06-26T08:15:38;6.00;;;4.90;;
50709;SDS011;37033;49.994;21.992;2023-06-26T08:18:08;6.30;;;4.80;;
50709;SDS011;37033;49.994;21.992;2023-06-26T08:20:39;6.80;;;5.30;;
50709;SDS011;37033;49.994;21.992;2023-06-26T08:23:10;7.00;;;5.10;;
50709;SDS011;37033;49.994;21.992;2023-06-26T08:25:41;6.10;;;5.60;;
50709;SDS011;37033;49.994;21.992;2023-06-26T08:28:12;5.80;;;4.80;;
50709;SDS011;37033;49.994;21.992;2023-06-26T08:30:42;7.60;;;5.00;;
50709;SDS011;37033;49.994;21.992;2023-06-26T08:33:13;6.10;;;5.30;;
50709;SDS011;37033;49.994;21.992;2023-06-26T08:35:44;10.40;;;5.50;;
50709;SDS011;37033;49.994;21.992;2023-06-26T08:38:14;5.90;;;5.20;;
50709;SDS011;37033;49.994;21.992;2023-06-26T08:40:45;7.70;;;5.40;;
50709;SDS011;37033;49.994;21.992;2023-06-26T08:43:15;5.80;;;4.80;;
50709;SDS011;37033;49.994;21.992;2023-06-26T08:45:47;6.60;;;5.20;;
50709;SDS011;37033;49.994;21.992;2023-06-26T08:48:19;4.80;;;4.10;;
50709;SDS011;37033;49.994;21.992;2023-06-26T08:50:52;5.30;;;4.70;;
50709;SDS011;37033;49.994;21.992;2023-06-26T08:53:26;5.50;;;4.60;;
50709;SDS011;37033;49.994;21.992;2023-06-26T08:56:03;5.20;;;4.80;;
50709;SDS011;37033;49.994;21.992;2023-06-26T08:58:35;6.70;;;4.40;;
50709;SDS011;37033;49.994;21.992;2023-06-26T09:01:07;7.50;;;4.50;;
50709;SDS011;37033;49.994;21.992;2023-06-26T09:03:38;5.40;;;5.00;;
50709;SDS011;37033;49.994;21.992;2023-06-26T09:06:09;5.10;;;4.60;;
50709;SDS011;37033;49.994;21.992;2023-06-26T09:08:40;4.70;;;4.30;;
50709;SDS011;37033;49.994;21.992;2023-06-26T09:11:11;6.20;;;5.10;;
50709;SDS011;37033;49.994;21.992;2023-06-26T09:13:41;7.80;;;5.50;;
50709;SDS011;37033;49.994;21.992;2023-06-26T09:16:15;5.70;;;4.60;;
50709;SDS011;37033;49.994;21.992;2023-06-26T09:18:46;6.40;;;5.50;;
50709;SDS011;37033;49.994;21.992;2023-06-26T09:21:16;5.50;;;4.80;;
50709;SDS011;37033;49.994;21.992;2023-06-26T09:23:47;6.50;;;4.80;;
50709;SDS011;37033;49.994;21.992;2023-06-26T09:26:18;5.70;;;5.10;;
50709;SDS011;37033;49.994;21.992;2023-06-26T09:28:50;4.80;;;4.40;;
50709;SDS011;37033;49.994;21.992;2023-06-26T09:31:23;7.80;;;4.60;;
50709;SDS011;37033;49.994;21.992;2023-06-26T09:33:57;4.90;;;4.50;;
50709;SDS011;37033;49.994;21.992;2023-06-26T09:36:29;6.30;;;3.50;;
50709;SDS011;37033;49.994;21.992;2023-06-26T09:39:00;4.40;;;3.70;;
50709;SDS011;37033;49.994;21.992;2023-06-26T09:41:32;4.40;;;3.90;;
50709;SDS011;37033;49.994;21.992;2023-06-26T09:44:03;6.10;;;4.40;;
50709;SDS011;37033;49.994;21.992;2023-06-26T09:46:35;4.30;;;3.90;;
50709;SDS011;37033;49.994;21.992;2023-06-26T09:49:09;4.90;;;3.70;;
50709;SDS011;37033;49.994;21.992;2023-06-26T09:51:41;4.20;;;3.80;;
50709;SDS011;37033;49.994;21.992;2023-06-26T09:54:12;4.50;;;4.10;;
50709;SDS011;37033;49.994;21.992;2023-06-26T09:56:45;4.30;;;3.90;;
50709;SDS011;37033;49.994;21.992;2023-06-26T09:59:16;4.10;;;3.80;;
50709;SDS011;37033;49.994;21.992;2023-06-26T10:01:47;4.00;;;3.70;;
50709;SDS011;37033;49.994;21.992;2023-06-26T10:04:17;5.70;;;4.20;;
50709;SDS011;37033;49.994;21.992;2023-06-26T10:06:49;4.00;;;3.50;;
50709;SDS011;37033;49.994;21.992;2023-06-26T10:09:23;5.60;;;3.90;;
50709;SDS011;37033;49.994;21.992;2023-06-26T10:11:55;3.90;;;3.60;;
50709;SDS011;37033;49.994;21.992;2023-06-26T10:14:30;5.10;;;3.90;;
50709;SDS011;37033;49.994;21.992;2023-06-26T10:17:03;9.90;;;3.90;;
50709;SDS011;37033;49.994;21.992;2023-06-26T10:19:38;3.80;;;3.50;;
50709;SDS011;37033;49.994;21.992;2023-06-26T10:22:14;3.50;;;3.20;;
50709;SDS011;37033;49.994;21.992;2023-06-26T10:24:47;8.40;;;4.00;;
50709;SDS011;37033;49.994;21.992;2023-06-26T10:27:25;5.80;;;4.00;;
50709;SDS011;37033;49.994;21.992;2023-06-26T10:30:02;10.20;;;4.10;;
50709;SDS011;37033;49.994;21.992;2023-06-26T10:32:35;4.20;;;3.60;;
50709;SDS011;37033;49.994;21.992;2023-06-26T10:35:06;4.90;;;3.60;;
50709;SDS011;37033;49.994;21.992;2023-06-26T10:37:42;4.40;;;4.00;;
50709;SDS011;37033;49.994;21.992;2023-06-26T10:40:14;6.10;;;3.50;;
50709;SDS011;37033;49.994;21.992;2023-06-26T10:42:50;5.70;;;4.10;;
50709;SDS011;37033;49.994;21.992;2023-06-26T10:45:34;4.20;;;3.60;;
50709;SDS011;37033;49.994;21.992;2023-06-26T10:48:06;3.80;;;3.50;;
50709;SDS011;37033;49.994;21.992;2023-06-26T10:50:37;4.60;;;3.90;;
50709;SDS011;37033;49.994;21.992;2023-06-26T10:53:15;3.50;;;3.20;;
50709;SDS011;37033;49.994;21.992;2023-06-26T10:55:58;4.00;;;3.70;;
50709;SDS011;37033;49.994;21.992;2023-06-26T10:58:31;3.70;;;3.10;;
50709;SDS011;37033;49.994;21.992;2023-06-26T11:04:04;4.10;;;3.30;;
50709;SDS011;37033;49.994;21.992;2023-06-26T11:06:36;3.40;;;2.90;;
50709;SDS011;37033;49.994;21.992;2023-06-26T11:09:08;4.30;;;3.50;;
50709;SDS011;37033;49.994;21.992;2023-06-26T11:14:36;4.80;;;3.00;;
50709;SDS011;37033;49.994;21.992;2023-06-26T11:17:07;6.60;;;3.60;;
50709;SDS011;37033;49.994;21.992;2023-06-26T11:19:38;3.10;;;2.80;;
50709;SDS011;37033;49.994;21.992;2023-06-26T11:22:13;3.10;;;2.80;;
50709;SDS011;37033;49.994;21.992;2023-06-26T11:24:45;4.30;;;3.30;;
50709;SDS011;37033;49.994;21.992;2023-06-26T11:27:16;5.50;;;3.20;;
50709;SDS011;37033;49.994;21.992;2023-06-26T11:29:48;5.30;;;3.50;;
50709;SDS011;37033;49.994;21.992;2023-06-26T11:32:19;4.80;;;3.50;;
50709;SDS011;37033;49.994;21.992;2023-06-26T11:34:49;4.20;;;3.40;;
50709;SDS011;37033;49.994;21.992;2023-06-26T11:37:21;4.90;;;3.30;;
50709;SDS011;37033;49.994;21.992;2023-06-26T11:39:52;4.20;;;3.80;;
50709;SDS011;37033;49.994;21.992;2023-06-26T11:42:23;3.40;;;3.10;;
50709;SDS011;37033;49.994;21.992;2023-06-26T11:44:54;3.90;;;3.20;;
50709;SDS011;37033;49.994;21.992;2023-06-26T11:47:25;3.30;;;3.00;;
50709;SDS011;37033;49.994;21.992;2023-06-26T11:49:56;3.70;;;2.90;;
50709;SDS011;37033;49.994;21.992;2023-06-26T11:52:27;3.10;;;2.80;;
50709;SDS011;37033;49.994;21.992;2023-06-26T11:54:57;6.30;;;3.20;;
50709;SDS011;37033;49.994;21.992;2023-06-26T11:57:30;4.10;;;3.50;;
50709;SDS011;37033;49.994;21.992;2023-06-26T12:00:11;3.70;;;3.40;;
50709;SDS011;37033;49.994;21.992;2023-06-26T12:02:43;3.20;;;3.00;;
50709;SDS011;37033;49.994;21.992;2023-06-26T12:05:15;2.70;;;2.50;;
50709;SDS011;37033;49.994;21.992;2023-06-26T12:07:47;3.70;;;3.30;;
50709;SDS011;37033;49.994;21.992;2023-06-26T12:10:19;3.80;;;3.40;;
50709;SDS011;37033;49.994;21.992;2023-06-26T12:12:50;3.10;;;2.40;;
50709;SDS011;37033;49.994;21.992;2023-06-26T12:15:20;3.50;;;2.70;;
50709;SDS011;37033;49.994;21.992;2023-06-26T12:17:51;5.00;;;3.40;;
50709;SDS011;37033;49.994;21.992;2023-06-26T12:20:22;4.50;;;3.10;;
50709;SDS011;37033;49.994;21.992;2023-06-26T12:22:54;3.30;;;3.00;;
50709;SDS011;37033;49.994;21.992;2023-06-26T12:25:25;3.40;;;2.80;;
50709;SDS011;37033;49.994;21.992;2023-06-26T12:27:55;2.70;;;2.50;;
50709;SDS011;37033;49.994;21.992;2023-06-26T12:30:26;4.10;;;2.80;;
50709;SDS011;37033;49.994;21.992;2023-06-26T12:32:57;3.60;;;2.60;;
50709;SDS011;37033;49.994;21.992;2023-06-26T12:35:28;5.00;;;2.90;;
50709;SDS011;37033;49.994;21.992;2023-06-26T12:38:01;3.10;;;2.80;;
50709;SDS011;37033;49.994;21.992;2023-06-26T12:40:37;5.10;;;2.90;;
50709;SDS011;37033;49.994;21.992;2023-06-26T12:43:23;3.00;;;2.10;;
50709;SDS011;37033;49.994;21.992;2023-06-26T12:45:55;3.10;;;2.40;;
50709;SDS011;37033;49.994;21.992;2023-06-26T12:48:36;3.10;;;2.80;;
50709;SDS011;37033;49.994;21.992;2023-06-26T12:51:11;2.60;;;2.40;;
50709;SDS011;37033;49.994;21.992;2023-06-26T12:53:43;3.10;;;2.70;;
50709;SDS011;37033;49.994;21.992;2023-06-26T12:56:14;3.00;;;2.60;;
50709;SDS011;37033;49.994;21.992;2023-06-26T12:58:45;3.40;;;3.10;;
50709;SDS011;37033;49.994;21.992;2023-06-26T13:01:15;3.40;;;3.00;;
50709;SDS011;37033;49.994;21.992;2023-06-26T13:03:47;3.20;;;2.80;;
50709;SDS011;37033;49.994;21.992;2023-06-26T13:06:19;2.90;;;2.60;;
50709;SDS011;37033;49.994;21.992;2023-06-26T13:08:50;4.30;;;2.80;;
50709;SDS011;37033;49.994;21.992;2023-06-26T13:11:21;3.40;;;2.80;;
50709;SDS011;37033;49.994;21.992;2023-06-26T13:13:52;2.50;;;2.30;;
50709;SDS011;37033;49.994;21.992;2023-06-26T13:16:22;3.40;;;3.00;;
50709;SDS011;37033;49.994;21.992;2023-06-26T13:18:53;3.10;;;2.80;;
50709;SDS011;37033;49.994;21.992;2023-06-26T13:21:24;2.90;;;2.70;;
50709;SDS011;37033;49.994;21.992;2023-06-26T13:23:55;3.20;;;2.80;;
50709;SDS011;37033;49.994;21.992;2023-06-26T13:26:26;5.30;;;3.20;;
50709;SDS011;37033;49.994;21.992;2023-06-26T13:31:31;3.20;;;2.90;;
50709;SDS011;37033;49.994;21.992;2023-06-26T13:34:02;5.40;;;3.00;;
50709;SDS011;37033;49.994;21.992;2023-06-26T13:36:33;3.20;;;2.90;;
50709;SDS011;37033;49.994;21.992;2023-06-26T13:39:03;3.00;;;2.80;;
50709;SDS011;37033;49.994;21.992;2023-06-26T13:41:35;3.30;;;2.60;;
50709;SDS011;37033;49.994;21.992;2023-06-26T13:44:06;2.90;;;2.50;;
50709;SDS011;37033;49.994;21.992;2023-06-26T13:46:36;5.80;;;3.00;;
50709;SDS011;37033;49.994;21.992;2023-06-26T13:49:07;6.10;;;3.10;;
50709;SDS011;37033;49.994;21.992;2023-06-26T13:51:38;4.40;;;3.20;;
50709;SDS011;37033;49.994;21.992;2023-06-26T13:54:13;3.90;;;2.40;;
50709;SDS011;37033;49.994;21.992;2023-06-26T13:56:46;2.70;;;2.50;;
50709;SDS011;37033;49.994;21.992;2023-06-26T13:59:16;3.80;;;2.60;;
50709;SDS011;37033;49.994;21.992;2023-06-26T14:01:47;3.90;;;2.40;;
50709;SDS011;37033;49.994;21.992;2023-06-26T14:04:18;2.70;;;2.20;;
50709;SDS011;37033;49.994;21.992;2023-06-26T14:06:48;4.10;;;2.80;;
50709;SDS011;37033;49.994;21.992;2023-06-26T14:09:19;3.10;;;2.40;;
50709;SDS011;37033;49.994;21.992;2023-06-26T14:11:50;2.60;;;2.30;;
50709;SDS011;37033;49.994;21.992;2023-06-26T14:14:20;2.90;;;2.60;;
50709;SDS011;37033;49.994;21.992;2023-06-26T14:16:51;4.10;;;2.40;;
50709;SDS011;37033;49.994;21.992;2023-06-26T14:19:22;4.30;;;2.70;;
50709;SDS011;37033;49.994;21.992;2023-06-26T14:21:52;4.10;;;2.60;;
50709;SDS011;37033;49.994;21.992;2023-06-26T14:24:23;4.30;;;3.50;;
50709;SDS011;37033;49.994;21.992;2023-06-26T14:26:54;2.80;;;2.60;;
50709;SDS011;37033;49.994;21.992;2023-06-26T14:29:24;3.50;;;2.90;;
50709;SDS011;37033;49.994;21.992;2023-06-26T14:31:55;2.40;;;2.20;;
50709;SDS011;37033;49.994;21.992;2023-06-26T14:34:26;5.70;;;2.40;;
50709;SDS011;37033;49.994;21.992;2023-06-26T14:36:57;2.20;;;2.00;;
50709;SDS011;37033;49.994;21.992;2023-06-26T14:39:28;3.70;;;2.40;;
50709;SDS011;37033;49.994;21.992;2023-06-26T14:41:58;2.50;;;2.30;;
50709;SDS011;37033;49.994;21.992;2023-06-26T14:44:29;3.00;;;2.50;;
50709;SDS011;37033;49.994;21.992;2023-06-26T14:47:00;2.80;;;2.10;;
50709;SDS011;37033;49.994;21.992;2023-06-26T14:49:31;6.60;;;2.50;;
50709;SDS011;37033;49.994;21.992;2023-06-26T14:52:02;5.50;;;2.60;;
50709;SDS011;37033;49.994;21.992;2023-06-26T14:54:33;2.70;;;2.20;;
50709;SDS011;37033;49.994;21.992;2023-06-26T14:57:05;2.40;;;2.10;;
50709;SDS011;37033;49.994;21.992;2023-06-26T14:59:36;2.40;;;2.20;;
50709;SDS011;37033;49.994;21.992;2023-06-26T15:02:07;2.60;;;2.20;;
50709;SDS011;37033;49.994;21.992;2023-06-26T15:04:38;2.50;;;2.20;;
50709;SDS011;37033;49.994;21.992;2023-06-26T15:07:08;2.60;;;2.40;;